sensor_id;sensor_type;location;lat;lon;timestamp;P1;durP1;ratioP1;P2;durP2;ratioP2
4198;SDS011;2113;50.946;14.610;2023-04-07T00:00:16;15.52;;;8.75;;
4198;SDS011;2113;50.946;14.610;2023-04-07T00:02:46;14.20;;;9.82;;
4198;SDS011;2113;50.946;14.610;2023-04-07T00:05:14;18.25;;;10.60;;
4198;SDS011;2113;50.946;14.610;2023-04-07T00:07:43;24.40;;;10.00;;
4198;SDS011;2113;50.946;14.610;2023-04-07T00:10:23;19.58;;;10.50;;
4198;SDS011;2113;50.946;14.610;2023-04-07T00:12:52;17.27;;;9.35;;
4198;SDS011;2113;50.946;14.610;2023-04-07T00:15:20;17.02;;;9.55;;
4198;SDS011;2113;50.946;14.610;2023-04-07T00:17:50;27.42;;;10.48;;
4198;SDS011;2113;50.946;14.610;2023-04-07T00:20:19;18.98;;;10.48;;
4198;SDS011;2113;50.946;14.610;2023-04-07T00:22:48;14.10;;;9.05;;
4198;SDS011;2113;50.946;14.610;2023-04-07T00:25:16;23.73;;;10.70;;
4198;SDS011;2113;50.946;14.610;2023-04-07T00:27:51;23.00;;;11.02;;
4198;SDS011;2113;50.946;14.610;2023-04-07T00:30:31;13.65;;;9.68;;
4198;SDS011;2113;50.946;14.610;2023-04-07T00:33:21;21.73;;;8.90;;
4198;SDS011;2113;50.946;14.610;2023-04-07T00:35:49;21.48;;;11.55;;
4198;SDS011;2113;50.946;14.610;2023-04-07T00:38:20;19.00;;;10.65;;
4198;SDS011;2113;50.946;14.610;2023-04-07T00:40:48;17.23;;;10.30;;
4198;SDS011;2113;50.946;14.610;2023-04-07T00:43:16;19.58;;;9.93;;
4198;SDS011;2113;50.946;14.610;2023-04-07T00:45:45;18.25;;;11.52;;
4198;SDS011;2113;50.946;14.610;2023-04-07T00:48:13;21.85;;;9.90;;
4198;SDS011;2113;50.946;14.610;2023-04-07T00:50:43;20.45;;;10.20;;
4198;SDS011;2113;50.946;14.610;2023-04-07T00:53:12;19.60;;;9.98;;
4198;SDS011;2113;50.946;14.610;2023-04-07T00:55:40;19.55;;;11.10;;
4198;SDS011;2113;50.946;14.610;2023-04-07T00:58:09;18.55;;;9.50;;
4198;SDS011;2113;50.946;14.610;2023-04-07T01:00:40;16.92;;;10.18;;
4198;SDS011;2113;50.946;14.610;2023-04-07T01:03:15;19.60;;;11.95;;
4198;SDS011;2113;50.946;14.610;2023-04-07T01:05:52;19.95;;;11.52;;
4198;SDS011;2113;50.946;14.610;2023-04-07T01:08:23;19.67;;;10.48;;
4198;SDS011;2113;50.946;14.610;2023-04-07T01:11:02;19.27;;;10.88;;
4198;SDS011;2113;50.946;14.610;2023-04-07T01:13:36;16.77;;;9.65;;
4198;SDS011;2113;50.946;14.610;2023-04-07T01:16:18;17.80;;;10.43;;
4198;SDS011;2113;50.946;14.610;2023-04-07T01:18:53;23.17;;;12.05;;
4198;SDS011;2113;50.946;14.610;2023-04-07T01:21:26;19.17;;;10.63;;
4198;SDS011;2113;50.946;14.610;2023-04-07T01:24:10;19.05;;;10.23;;
4198;SDS011;2113;50.946;14.610;2023-04-07T01:26:55;22.63;;;11.23;;
4198;SDS011;2113;50.946;14.610;2023-04-07T01:29:34;17.67;;;9.45;;
4198;SDS011;2113;50.946;14.610;2023-04-07T01:32:06;19.92;;;10.27;;
4198;SDS011;2113;50.946;14.610;2023-04-07T01:34:38;19.55;;;10.77;;
4198;SDS011;2113;50.946;14.610;2023-04-07T01:37:08;20.70;;;10.95;;
4198;SDS011;2113;50.946;14.610;2023-04-07T01:39:37;21.38;;;11.95;;
4198;SDS011;2113;50.946;14.610;2023-04-07T01:42:06;21.08;;;10.18;;
4198;SDS011;2113;50.946;14.610;2023-04-07T01:44:37;21.50;;;11.23;;
4198;SDS011;2113;50.946;14.610;2023-04-07T01:47:06;21.60;;;10.55;;
4198;SDS011;2113;50.946;14.610;2023-04-07T01:49:35;19.08;;;10.25;;
4198;SDS011;2113;50.946;14.610;2023-04-07T01:52:05;19.98;;;10.82;;
4198;SDS011;2113;50.946;14.610;2023-04-07T01:54:34;18.48;;;11.10;;
4198;SDS011;2113;50.946;14.610;2023-04-07T01:57:03;18.30;;;10.52;;
4198;SDS011;2113;50.946;14.610;2023-04-07T01:59:31;17.95;;;10.63;;
4198;SDS011;2113;50.946;14.610;2023-04-07T02:02:02;23.58;;;10.90;;
4198;SDS011;2113;50.946;14.610;2023-04-07T02:04:31;16.83;;;11.00;;
4198;SDS011;2113;50.946;14.610;2023-04-07T02:07:08;20.38;;;11.75;;
4198;SDS011;2113;50.946;14.610;2023-04-07T02:09:46;20.17;;;9.82;;
4198;SDS011;2113;50.946;14.610;2023-04-07T02:12:16;26.83;;;11.10;;
4198;SDS011;2113;50.946;14.610;2023-04-07T02:14:56;17.70;;;11.02;;
4198;SDS011;2113;50.946;14.610;2023-04-07T02:17:26;19.40;;;10.60;;
4198;SDS011;2113;50.946;14.610;2023-04-07T02:20:00;20.55;;;11.30;;
4198;SDS011;2113;50.946;14.610;2023-04-07T02:22:29;25.45;;;11.10;;
4198;SDS011;2113;50.946;14.610;2023-04-07T02:24:58;19.92;;;11.95;;
4198;SDS011;2113;50.946;14.610;2023-04-07T02:27:26;17.98;;;9.68;;
4198;SDS011;2113;50.946;14.610;2023-04-07T02:29:55;19.77;;;11.27;;
4198;SDS011;2113;50.946;14.610;2023-04-07T02:32:23;20.13;;;10.55;;
4198;SDS011;2113;50.946;14.610;2023-04-07T02:34:53;26.45;;;14.02;;
4198;SDS011;2113;50.946;14.610;2023-04-07T02:37:22;20.67;;;14.05;;
4198;SDS011;2113;50.946;14.610;2023-04-07T02:39:50;23.40;;;12.98;;
4198;SDS011;2113;50.946;14.610;2023-04-07T02:42:19;21.13;;;13.40;;
4198;SDS011;2113;50.946;14.610;2023-04-07T02:44:47;24.65;;;13.82;;
4198;SDS011;2113;50.946;14.610;2023-04-07T02:47:16;27.92;;;14.18;;
4198;SDS011;2113;50.946;14.610;2023-04-07T02:49:44;25.25;;;13.55;;
4198;SDS011;2113;50.946;14.610;2023-04-07T02:52:14;24.15;;;12.65;;
4198;SDS011;2113;50.946;14.610;2023-04-07T02:54:42;25.40;;;14.43;;
4198;SDS011;2113;50.946;14.610;2023-04-07T02:57:11;27.63;;;12.48;;
4198;SDS011;2113;50.946;14.610;2023-04-07T02:59:39;18.50;;;10.98;;
4198;SDS011;2113;50.946;14.610;2023-04-07T03:02:10;29.17;;;11.43;;
4198;SDS011;2113;50.946;14.610;2023-04-07T03:04:39;17.80;;;11.38;;
4198;SDS011;2113;50.946;14.610;2023-04-07T03:07:07;21.13;;;12.07;;
4198;SDS011;2113;50.946;14.610;2023-04-07T03:09:37;21.08;;;9.82;;
4198;SDS011;2113;50.946;14.610;2023-04-07T03:12:06;19.90;;;9.77;;
4198;SDS011;2113;50.946;14.610;2023-04-07T03:14:36;24.98;;;10.45;;
4198;SDS011;2113;50.946;14.610;2023-04-07T03:17:04;17.17;;;9.45;;
4198;SDS011;2113;50.946;14.610;2023-04-07T03:19:33;22.58;;;12.52;;
4198;SDS011;2113;50.946;14.610;2023-04-07T03:22:01;17.27;;;9.40;;
4198;SDS011;2113;50.946;14.610;2023-04-07T03:24:34;21.55;;;12.52;;
4198;SDS011;2113;50.946;14.610;2023-04-07T03:27:03;16.63;;;11.02;;
4198;SDS011;2113;50.946;14.610;2023-04-07T03:29:42;26.77;;;13.13;;
4198;SDS011;2113;50.946;14.610;2023-04-07T03:32:13;19.65;;;13.02;;
4198;SDS011;2113;50.946;14.610;2023-04-07T03:34:41;23.35;;;12.45;;
4198;SDS011;2113;50.946;14.610;2023-04-07T03:37:11;18.95;;;11.35;;
4198;SDS011;2113;50.946;14.610;2023-04-07T03:39:41;18.17;;;9.85;;
4198;SDS011;2113;50.946;14.610;2023-04-07T03:42:33;19.92;;;10.52;;
4198;SDS011;2113;50.946;14.610;2023-04-07T03:45:05;16.80;;;9.20;;
4198;SDS011;2113;50.946;14.610;2023-04-07T03:47:40;19.52;;;9.95;;
4198;SDS011;2113;50.946;14.610;2023-04-07T03:50:09;19.38;;;10.52;;
4198;SDS011;2113;50.946;14.610;2023-04-07T03:52:47;17.55;;;10.90;;
4198;SDS011;2113;50.946;14.610;2023-04-07T03:55:22;18.75;;;10.02;;
4198;SDS011;2113;50.946;14.610;2023-04-07T03:57:57;25.13;;;11.30;;
4198;SDS011;2113;50.946;14.610;2023-04-07T04:00:29;15.50;;;11.10;;
4198;SDS011;2113;50.946;14.610;2023-04-07T04:03:07;19.60;;;11.35;;
4198;SDS011;2113;50.946;14.610;2023-04-07T04:05:42;29.17;;;13.02;;
4198;SDS011;2113;50.946;14.610;2023-04-07T04:08:16;20.23;;;10.65;;
4198;SDS011;2113;50.946;14.610;2023-04-07T04:10:45;20.88;;;12.25;;
4198;SDS011;2113;50.946;14.610;2023-04-07T04:13:14;27.08;;;11.90;;
4198;SDS011;2113;50.946;14.610;2023-04-07T04:15:43;23.02;;;11.57;;
4198;SDS011;2113;50.946;14.610;2023-04-07T04:18:14;19.40;;;11.23;;
4198;SDS011;2113;50.946;14.610;2023-04-07T04:20:42;22.98;;;12.38;;
4198;SDS011;2113;50.946;14.610;2023-04-07T04:23:11;27.70;;;12.90;;
4198;SDS011;2113;50.946;14.610;2023-04-07T04:25:40;18.70;;;10.85;;
4198;SDS011;2113;50.946;14.610;2023-04-07T04:28:11;23.65;;;12.98;;
4198;SDS011;2113;50.946;14.610;2023-04-07T04:30:41;20.00;;;11.45;;
4198;SDS011;2113;50.946;14.610;2023-04-07T04:33:10;20.80;;;12.98;;
4198;SDS011;2113;50.946;14.610;2023-04-07T04:35:46;25.38;;;12.25;;
4198;SDS011;2113;50.946;14.610;2023-04-07T04:38:18;21.13;;;12.05;;
4198;SDS011;2113;50.946;14.610;2023-04-07T04:40:55;21.20;;;11.23;;
4198;SDS011;2113;50.946;14.610;2023-04-07T04:43:27;18.30;;;11.10;;
4198;SDS011;2113;50.946;14.610;2023-04-07T04:45:58;20.00;;;10.68;;
4198;SDS011;2113;50.946;14.610;2023-04-07T04:48:29;24.02;;;12.50;;
4198;SDS011;2113;50.946;14.610;2023-04-07T04:50:57;24.27;;;11.60;;
4198;SDS011;2113;50.946;14.610;2023-04-07T04:53:25;20.80;;;11.10;;
4198;SDS011;2113;50.946;14.610;2023-04-07T04:55:58;19.13;;;11.23;;
4198;SDS011;2113;50.946;14.610;2023-04-07T04:58:38;18.98;;;10.57;;
4198;SDS011;2113;50.946;14.610;2023-04-07T05:01:10;23.35;;;11.18;;
4198;SDS011;2113;50.946;14.610;2023-04-07T05:03:45;28.10;;;12.45;;
4198;SDS011;2113;50.946;14.610;2023-04-07T05:06:19;20.42;;;10.60;;
4198;SDS011;2113;50.946;14.610;2023-04-07T05:08:50;23.63;;;11.23;;
4198;SDS011;2113;50.946;14.610;2023-04-07T05:11:23;21.27;;;10.88;;
4198;SDS011;2113;50.946;14.610;2023-04-07T05:13:54;20.13;;;11.48;;
4198;SDS011;2113;50.946;14.610;2023-04-07T05:16:25;16.85;;;9.90;;
4198;SDS011;2113;50.946;14.610;2023-04-07T05:18:53;14.50;;;10.40;;
4198;SDS011;2113;50.946;14.610;2023-04-07T05:21:24;19.27;;;10.82;;
4198;SDS011;2113;50.946;14.610;2023-04-07T05:27:14;17.10;;;11.35;;
4198;SDS011;2113;50.946;14.610;2023-04-07T05:29:46;18.15;;;12.18;;
4198;SDS011;2113;50.946;14.610;2023-04-07T05:32:24;24.30;;;12.55;;
4198;SDS011;2113;50.946;14.610;2023-04-07T05:34:57;29.73;;;14.95;;
4198;SDS011;2113;50.946;14.610;2023-04-07T05:37:30;29.20;;;14.50;;
4198;SDS011;2113;50.946;14.610;2023-04-07T05:40:02;57.45;;;27.08;;
4198;SDS011;2113;50.946;14.610;2023-04-07T05:42:31;34.90;;;18.13;;
4198;SDS011;2113;50.946;14.610;2023-04-07T05:45:01;32.58;;;14.38;;
4198;SDS011;2113;50.946;14.610;2023-04-07T05:47:36;23.25;;;13.00;;
4198;SDS011;2113;50.946;14.610;2023-04-07T05:50:05;20.90;;;11.82;;
4198;SDS011;2113;50.946;14.610;2023-04-07T05:52:34;19.85;;;11.32;;
4198;SDS011;2113;50.946;14.610;2023-04-07T05:55:15;21.55;;;12.85;;
4198;SDS011;2113;50.946;14.610;2023-04-07T05:57:43;19.95;;;10.70;;
4198;SDS011;2113;50.946;14.610;2023-04-07T06:00:13;16.48;;;10.80;;
4198;SDS011;2113;50.946;14.610;2023-04-07T06:02:49;19.75;;;11.75;;
4198;SDS011;2113;50.946;14.610;2023-04-07T06:05:19;21.95;;;10.90;;
4198;SDS011;2113;50.946;14.610;2023-04-07T06:07:51;23.52;;;12.18;;
4198;SDS011;2113;50.946;14.610;2023-04-07T06:10:20;19.35;;;11.55;;
4198;SDS011;2113;50.946;14.610;2023-04-07T06:12:49;16.85;;;10.20;;
4198;SDS011;2113;50.946;14.610;2023-04-07T06:15:18;18.55;;;11.20;;
4198;SDS011;2113;50.946;14.610;2023-04-07T06:17:46;18.42;;;10.57;;
4198;SDS011;2113;50.946;14.610;2023-04-07T06:20:17;22.70;;;10.98;;
4198;SDS011;2113;50.946;14.610;2023-04-07T06:22:47;19.38;;;11.50;;
4198;SDS011;2113;50.946;14.610;2023-04-07T06:25:15;22.80;;;14.00;;
4198;SDS011;2113;50.946;14.610;2023-04-07T06:27:44;18.15;;;12.02;;
4198;SDS011;2113;50.946;14.610;2023-04-07T06:30:13;26.80;;;14.18;;
4198;SDS011;2113;50.946;14.610;2023-04-07T06:32:42;20.80;;;12.40;;
4198;SDS011;2113;50.946;14.610;2023-04-07T06:35:10;24.30;;;14.07;;
4198;SDS011;2113;50.946;14.610;2023-04-07T06:37:40;22.42;;;13.65;;
4198;SDS011;2113;50.946;14.610;2023-04-07T06:40:08;22.90;;;13.43;;
4198;SDS011;2113;50.946;14.610;2023-04-07T06:42:37;25.92;;;15.98;;
4198;SDS011;2113;50.946;14.610;2023-04-07T06:45:14;27.90;;;15.85;;
4198;SDS011;2113;50.946;14.610;2023-04-07T06:47:43;26.73;;;16.45;;
4198;SDS011;2113;50.946;14.610;2023-04-07T06:50:11;26.33;;;15.55;;
4198;SDS011;2113;50.946;14.610;2023-04-07T06:52:41;27.48;;;16.63;;
4198;SDS011;2113;50.946;14.610;2023-04-07T06:55:09;28.15;;;14.98;;
4198;SDS011;2113;50.946;14.610;2023-04-07T06:57:38;25.42;;;14.20;;
4198;SDS011;2113;50.946;14.610;2023-04-07T07:00:06;21.52;;;13.10;;
4198;SDS011;2113;50.946;14.610;2023-04-07T07:02:36;21.35;;;13.60;;
4198;SDS011;2113;50.946;14.610;2023-04-07T07:05:05;22.73;;;13.82;;
4198;SDS011;2113;50.946;14.610;2023-04-07T07:07:34;21.58;;;12.75;;
4198;SDS011;2113;50.946;14.610;2023-04-07T07:10:04;14.30;;;10.52;;
4198;SDS011;2113;50.946;14.610;2023-04-07T07:12:33;26.58;;;13.75;;
4198;SDS011;2113;50.946;14.610;2023-04-07T07:15:03;21.25;;;12.45;;
4198;SDS011;2113;50.946;14.610;2023-04-07T07:17:32;16.05;;;9.93;;
4198;SDS011;2113;50.946;14.610;2023-04-07T07:20:01;12.98;;;9.57;;
4198;SDS011;2113;50.946;14.610;2023-04-07T07:22:30;16.52;;;9.68;;
4198;SDS011;2113;50.946;14.610;2023-04-07T07:24:58;16.85;;;9.70;;
4198;SDS011;2113;50.946;14.610;2023-04-07T07:27:28;19.83;;;10.68;;
4198;SDS011;2113;50.946;14.610;2023-04-07T07:29:56;16.55;;;9.35;;
4198;SDS011;2113;50.946;14.610;2023-04-07T07:32:24;16.73;;;11.60;;
4198;SDS011;2113;50.946;14.610;2023-04-07T07:34:52;17.88;;;10.95;;
4198;SDS011;2113;50.946;14.610;2023-04-07T07:37:20;23.90;;;12.32;;
4198;SDS011;2113;50.946;14.610;2023-04-07T07:39:49;21.17;;;11.13;;
4198;SDS011;2113;50.946;14.610;2023-04-07T07:42:18;20.55;;;12.10;;
4198;SDS011;2113;50.946;14.610;2023-04-07T07:44:47;18.33;;;11.27;;
4198;SDS011;2113;50.946;14.610;2023-04-07T07:47:16;19.05;;;11.50;;
4198;SDS011;2113;50.946;14.610;2023-04-07T07:49:45;22.40;;;13.05;;
4198;SDS011;2113;50.946;14.610;2023-04-07T07:52:13;20.70;;;12.02;;
4198;SDS011;2113;50.946;14.610;2023-04-07T07:54:41;27.25;;;12.55;;
4198;SDS011;2113;50.946;14.610;2023-04-07T07:57:10;28.20;;;14.10;;
4198;SDS011;2113;50.946;14.610;2023-04-07T07:59:38;18.15;;;12.43;;
4198;SDS011;2113;50.946;14.610;2023-04-07T08:02:10;25.70;;;18.25;;
4198;SDS011;2113;50.946;14.610;2023-04-07T08:04:40;28.33;;;17.73;;
4198;SDS011;2113;50.946;14.610;2023-04-07T08:07:08;23.58;;;14.90;;
4198;SDS011;2113;50.946;14.610;2023-04-07T08:09:37;21.40;;;13.40;;
4198;SDS011;2113;50.946;14.610;2023-04-07T08:12:10;23.10;;;13.93;;
4198;SDS011;2113;50.946;14.610;2023-04-07T08:14:38;22.55;;;13.55;;
4198;SDS011;2113;50.946;14.610;2023-04-07T08:17:06;25.73;;;12.23;;
4198;SDS011;2113;50.946;14.610;2023-04-07T08:19:37;25.33;;;15.45;;
4198;SDS011;2113;50.946;14.610;2023-04-07T08:22:05;25.52;;;12.57;;
4198;SDS011;2113;50.946;14.610;2023-04-07T08:24:33;24.70;;;12.85;;
4198;SDS011;2113;50.946;14.610;2023-04-07T08:27:01;25.50;;;15.18;;
4198;SDS011;2113;50.946;14.610;2023-04-07T08:29:30;17.40;;;11.98;;
4198;SDS011;2113;50.946;14.610;2023-04-07T08:31:58;21.42;;;12.48;;
4198;SDS011;2113;50.946;14.610;2023-04-07T08:34:27;20.77;;;13.23;;
4198;SDS011;2113;50.946;14.610;2023-04-07T08:36:57;26.05;;;14.52;;
4198;SDS011;2113;50.946;14.610;2023-04-07T08:39:25;22.67;;;13.68;;
4198;SDS011;2113;50.946;14.610;2023-04-07T08:41:53;23.25;;;12.05;;
4198;SDS011;2113;50.946;14.610;2023-04-07T08:44:23;19.50;;;12.70;;
4198;SDS011;2113;50.946;14.610;2023-04-07T08:46:53;15.95;;;11.75;;
4198;SDS011;2113;50.946;14.610;2023-04-07T08:49:25;16.30;;;10.52;;
4198;SDS011;2113;50.946;14.610;2023-04-07T08:51:56;18.70;;;12.10;;
4198;SDS011;2113;50.946;14.610;2023-04-07T08:54:30;16.50;;;10.60;;
4198;SDS011;2113;50.946;14.610;2023-04-07T08:56:59;24.85;;;11.77;;
4198;SDS011;2113;50.946;14.610;2023-04-07T08:59:31;17.80;;;10.70;;
4198;SDS011;2113;50.946;14.610;2023-04-07T09:01:59;21.85;;;11.25;;
4198;SDS011;2113;50.946;14.610;2023-04-07T09:04:29;24.17;;;13.13;;
4198;SDS011;2113;50.946;14.610;2023-04-07T09:06:59;16.98;;;10.05;;
4198;SDS011;2113;50.946;14.610;2023-04-07T09:09:28;14.75;;;10.40;;
4198;SDS011;2113;50.946;14.610;2023-04-07T09:11:56;24.08;;;11.05;;
4198;SDS011;2113;50.946;14.610;2023-04-07T09:14:25;20.70;;;14.05;;
4198;SDS011;2113;50.946;14.610;2023-04-07T09:16:54;17.40;;;10.90;;
4198;SDS011;2113;50.946;14.610;2023-04-07T09:19:23;15.55;;;10.13;;
4198;SDS011;2113;50.946;14.610;2023-04-07T09:21:53;22.52;;;11.63;;
4198;SDS011;2113;50.946;14.610;2023-04-07T09:24:23;20.85;;;11.70;;
4198;SDS011;2113;50.946;14.610;2023-04-07T09:27:09;17.65;;;11.68;;
4198;SDS011;2113;50.946;14.610;2023-04-07T09:29:43;16.05;;;10.55;;
4198;SDS011;2113;50.946;14.610;2023-04-07T09:32:17;20.48;;;11.40;;
4198;SDS011;2113;50.946;14.610;2023-04-07T09:35:05;16.55;;;10.88;;
4198;SDS011;2113;50.946;14.610;2023-04-07T09:37:35;15.55;;;10.77;;
4198;SDS011;2113;50.946;14.610;2023-04-07T09:40:05;14.90;;;10.45;;
4198;SDS011;2113;50.946;14.610;2023-04-07T09:42:43;18.10;;;11.90;;
4198;SDS011;2113;50.946;14.610;2023-04-07T09:45:12;16.13;;;9.95;;
4198;SDS011;2113;50.946;14.610;2023-04-07T09:48:03;13.93;;;9.18;;
4198;SDS011;2113;50.946;14.610;2023-04-07T09:50:34;16.65;;;10.73;;
4198;SDS011;2113;50.946;14.610;2023-04-07T09:53:04;16.00;;;9.85;;
4198;SDS011;2113;50.946;14.610;2023-04-07T09:55:34;13.95;;;10.13;;
4198;SDS011;2113;50.946;14.610;2023-04-07T09:58:04;17.80;;;9.93;;
4198;SDS011;2113;50.946;14.610;2023-04-07T10:00:34;19.40;;;10.98;;
4198;SDS011;2113;50.946;14.610;2023-04-07T10:03:02;19.85;;;9.90;;
4198;SDS011;2113;50.946;14.610;2023-04-07T10:05:31;14.30;;;9.18;;
4198;SDS011;2113;50.946;14.610;2023-04-07T10:08:02;14.70;;;8.68;;
4198;SDS011;2113;50.946;14.610;2023-04-07T10:10:34;16.10;;;10.73;;
4198;SDS011;2113;50.946;14.610;2023-04-07T10:13:04;18.85;;;11.02;;
4198;SDS011;2113;50.946;14.610;2023-04-07T10:15:33;22.92;;;12.00;;
4198;SDS011;2113;50.946;14.610;2023-04-07T10:18:03;17.50;;;11.88;;
4198;SDS011;2113;50.946;14.610;2023-04-07T10:20:34;14.88;;;9.25;;
4198;SDS011;2113;50.946;14.610;2023-04-07T10:23:07;13.40;;;10.05;;
4198;SDS011;2113;50.946;14.610;2023-04-07T10:25:42;16.58;;;9.85;;
4198;SDS011;2113;50.946;14.610;2023-04-07T10:28:12;15.25;;;9.60;;
4198;SDS011;2113;50.946;14.610;2023-04-07T10:30:42;14.75;;;8.15;;
4198;SDS011;2113;50.946;14.610;2023-04-07T10:33:12;13.32;;;7.65;;
4198;SDS011;2113;50.946;14.610;2023-04-07T10:38:32;17.33;;;8.85;;
4198;SDS011;2113;50.946;14.610;2023-04-07T10:41:08;14.88;;;8.23;;
4198;SDS011;2113;50.946;14.610;2023-04-07T10:44:00;14.20;;;7.47;;
4198;SDS011;2113;50.946;14.610;2023-04-07T10:49:31;21.15;;;8.90;;
4198;SDS011;2113;50.946;14.610;2023-04-07T10:52:22;12.48;;;7.82;;
4198;SDS011;2113;50.946;14.610;2023-04-07T11:01:15;10.02;;;6.38;;
4198;SDS011;2113;50.946;14.610;2023-04-07T11:03:56;12.85;;;7.75;;
4198;SDS011;2113;50.946;14.610;2023-04-07T11:09:20;10.43;;;6.40;;
4198;SDS011;2113;50.946;14.610;2023-04-07T11:11:49;11.65;;;8.65;;
4198;SDS011;2113;50.946;14.610;2023-04-07T11:14:30;17.75;;;8.40;;
4198;SDS011;2113;50.946;14.610;2023-04-07T11:17:02;13.73;;;7.20;;
4198;SDS011;2113;50.946;14.610;2023-04-07T11:19:41;12.52;;;8.23;;
4198;SDS011;2113;50.946;14.610;2023-04-07T11:22:18;12.95;;;6.80;;
4198;SDS011;2113;50.946;14.610;2023-04-07T11:24:49;9.73;;;6.32;;
4198;SDS011;2113;50.946;14.610;2023-04-07T11:27:18;17.23;;;6.15;;
4198;SDS011;2113;50.946;14.610;2023-04-07T11:29:48;11.95;;;7.18;;
4198;SDS011;2113;50.946;14.610;2023-04-07T11:32:20;11.35;;;6.40;;
4198;SDS011;2113;50.946;14.610;2023-04-07T11:34:51;8.38;;;5.93;;
4198;SDS011;2113;50.946;14.610;2023-04-07T11:37:20;15.57;;;7.55;;
4198;SDS011;2113;50.946;14.610;2023-04-07T11:39:50;16.25;;;7.85;;
4198;SDS011;2113;50.946;14.610;2023-04-07T11:42:30;12.70;;;8.07;;
4198;SDS011;2113;50.946;14.610;2023-04-07T11:45:00;21.02;;;11.43;;
4198;SDS011;2113;50.946;14.610;2023-04-07T11:47:33;15.57;;;8.70;;
4198;SDS011;2113;50.946;14.610;2023-04-07T11:50:02;9.73;;;6.75;;
4198;SDS011;2113;50.946;14.610;2023-04-07T11:52:39;16.77;;;10.32;;
4198;SDS011;2113;50.946;14.610;2023-04-07T11:55:15;18.30;;;11.80;;
4198;SDS011;2113;50.946;14.610;2023-04-07T11:57:48;16.88;;;10.65;;
4198;SDS011;2113;50.946;14.610;2023-04-07T12:00:19;16.20;;;10.13;;
4198;SDS011;2113;50.946;14.610;2023-04-07T12:02:48;18.52;;;10.18;;
4198;SDS011;2113;50.946;14.610;2023-04-07T12:05:17;17.77;;;9.77;;
4198;SDS011;2113;50.946;14.610;2023-04-07T12:07:51;20.98;;;12.00;;
4198;SDS011;2113;50.946;14.610;2023-04-07T12:10:21;19.40;;;10.13;;
4198;SDS011;2113;50.946;14.610;2023-04-07T12:12:52;20.92;;;11.70;;
4198;SDS011;2113;50.946;14.610;2023-04-07T12:15:24;19.17;;;11.70;;
4198;SDS011;2113;50.946;14.610;2023-04-07T12:17:52;17.13;;;10.68;;
4198;SDS011;2113;50.946;14.610;2023-04-07T12:20:21;16.88;;;9.90;;
4198;SDS011;2113;50.946;14.610;2023-04-07T12:22:50;15.48;;;9.88;;
4198;SDS011;2113;50.946;14.610;2023-04-07T12:25:18;35.90;;;19.10;;
4198;SDS011;2113;50.946;14.610;2023-04-07T12:27:46;15.95;;;8.30;;
4198;SDS011;2113;50.946;14.610;2023-04-07T12:30:15;12.40;;;7.40;;
4198;SDS011;2113;50.946;14.610;2023-04-07T12:32:45;11.93;;;7.80;;
4198;SDS011;2113;50.946;14.610;2023-04-07T12:35:14;15.80;;;8.07;;
4198;SDS011;2113;50.946;14.610;2023-04-07T12:37:43;11.45;;;7.10;;
4198;SDS011;2113;50.946;14.610;2023-04-07T12:40:15;15.02;;;8.38;;
4198;SDS011;2113;50.946;14.610;2023-04-07T12:42:44;13.48;;;8.20;;
4198;SDS011;2113;50.946;14.610;2023-04-07T12:45:17;12.32;;;8.43;;
4198;SDS011;2113;50.946;14.610;2023-04-07T12:47:48;12.57;;;8.57;;
4198;SDS011;2113;50.946;14.610;2023-04-07T12:50:16;13.25;;;7.55;;
4198;SDS011;2113;50.946;14.610;2023-04-07T12:52:45;10.75;;;7.43;;
4198;SDS011;2113;50.946;14.610;2023-04-07T12:55:14;9.32;;;6.93;;
4198;SDS011;2113;50.946;14.610;2023-04-07T12:57:43;12.23;;;7.85;;
4198;SDS011;2113;50.946;14.610;2023-04-07T13:00:12;12.27;;;7.68;;
4198;SDS011;2113;50.946;14.610;2023-04-07T13:02:41;14.43;;;8.50;;
4198;SDS011;2113;50.946;14.610;2023-04-07T13:05:12;15.23;;;7.25;;
4198;SDS011;2113;50.946;14.610;2023-04-07T13:07:40;11.18;;;6.82;;
4198;SDS011;2113;50.946;14.610;2023-04-07T13:10:08;15.93;;;7.45;;
4198;SDS011;2113;50.946;14.610;2023-04-07T13:12:37;12.55;;;6.65;;
4198;SDS011;2113;50.946;14.610;2023-04-07T13:15:06;13.32;;;7.28;;
4198;SDS011;2113;50.946;14.610;2023-04-07T13:17:35;13.70;;;7.03;;
4198;SDS011;2113;50.946;14.610;2023-04-07T13:20:05;11.75;;;7.63;;
4198;SDS011;2113;50.946;14.610;2023-04-07T13:22:36;15.15;;;7.85;;
4198;SDS011;2113;50.946;14.610;2023-04-07T13:25:16;12.43;;;6.10;;
4198;SDS011;2113;50.946;14.610;2023-04-07T13:27:44;14.63;;;8.55;;
4198;SDS011;2113;50.946;14.610;2023-04-07T13:30:13;15.55;;;8.02;;
4198;SDS011;2113;50.946;14.610;2023-04-07T13:32:41;13.98;;;8.13;;
4198;SDS011;2113;50.946;14.610;2023-04-07T13:35:09;13.55;;;7.72;;
4198;SDS011;2113;50.946;14.610;2023-04-07T13:37:39;11.82;;;7.05;;
4198;SDS011;2113;50.946;14.610;2023-04-07T13:40:08;11.27;;;7.45;;
4198;SDS011;2113;50.946;14.610;2023-04-07T13:42:38;12.43;;;8.00;;
4198;SDS011;2113;50.946;14.610;2023-04-07T13:45:07;14.95;;;7.72;;
4198;SDS011;2113;50.946;14.610;2023-04-07T13:47:36;10.00;;;7.43;;
4198;SDS011;2113;50.946;14.610;2023-04-07T13:50:04;13.88;;;8.20;;
4198;SDS011;2113;50.946;14.610;2023-04-07T13:52:33;10.80;;;7.05;;
4198;SDS011;2113;50.946;14.610;2023-04-07T13:55:03;13.00;;;7.68;;
4198;SDS011;2113;50.946;14.610;2023-04-07T13:57:33;10.35;;;7.50;;
4198;SDS011;2113;50.946;14.610;2023-04-07T14:00:01;14.27;;;9.18;;
4198;SDS011;2113;50.946;14.610;2023-04-07T14:02:34;12.43;;;7.60;;
4198;SDS011;2113;50.946;14.610;2023-04-07T14:05:03;9.60;;;8.27;;
4198;SDS011;2113;50.946;14.610;2023-04-07T14:07:31;12.95;;;9.35;;
4198;SDS011;2113;50.946;14.610;2023-04-07T14:10:00;12.90;;;8.10;;
4198;SDS011;2113;50.946;14.610;2023-04-07T14:12:30;14.95;;;9.77;;
4198;SDS011;2113;50.946;14.610;2023-04-07T14:15:00;17.83;;;11.02;;
4198;SDS011;2113;50.946;14.610;2023-04-07T14:17:30;14.43;;;9.13;;
4198;SDS011;2113;50.946;14.610;2023-04-07T14:19:59;13.48;;;9.18;;
4198;SDS011;2113;50.946;14.610;2023-04-07T14:22:27;11.80;;;8.40;;
4198;SDS011;2113;50.946;14.610;2023-04-07T14:24:56;16.70;;;9.43;;
4198;SDS011;2113;50.946;14.610;2023-04-07T14:27:24;14.45;;;9.45;;
4198;SDS011;2113;50.946;14.610;2023-04-07T14:29:59;12.23;;;9.05;;
4198;SDS011;2113;50.946;14.610;2023-04-07T14:32:28;15.75;;;10.00;;
4198;SDS011;2113;50.946;14.610;2023-04-07T14:34:58;15.15;;;9.70;;
4198;SDS011;2113;50.946;14.610;2023-04-07T14:37:27;18.05;;;11.90;;
4198;SDS011;2113;50.946;14.610;2023-04-07T14:39:55;18.20;;;10.55;;
4198;SDS011;2113;50.946;14.610;2023-04-07T14:42:29;17.60;;;10.95;;
4198;SDS011;2113;50.946;14.610;2023-04-07T14:44:59;21.08;;;12.20;;
4198;SDS011;2113;50.946;14.610;2023-04-07T14:47:31;21.77;;;13.30;;
4198;SDS011;2113;50.946;14.610;2023-04-07T14:49:59;18.42;;;10.65;;
4198;SDS011;2113;50.946;14.610;2023-04-07T14:52:27;12.30;;;9.00;;
4198;SDS011;2113;50.946;14.610;2023-04-07T14:54:55;16.45;;;9.68;;
4198;SDS011;2113;50.946;14.610;2023-04-07T14:57:26;19.92;;;9.43;;
4198;SDS011;2113;50.946;14.610;2023-04-07T14:59:55;17.17;;;9.60;;
4198;SDS011;2113;50.946;14.610;2023-04-07T15:02:25;14.23;;;9.32;;
4198;SDS011;2113;50.946;14.610;2023-04-07T15:04:55;13.95;;;9.75;;
4198;SDS011;2113;50.946;14.610;2023-04-07T15:07:23;14.82;;;9.88;;
4198;SDS011;2113;50.946;14.610;2023-04-07T15:09:52;16.15;;;9.23;;
4198;SDS011;2113;50.946;14.610;2023-04-07T15:12:20;13.85;;;9.60;;
4198;SDS011;2113;50.946;14.610;2023-04-07T15:14:49;18.58;;;11.60;;
4198;SDS011;2113;50.946;14.610;2023-04-07T15:17:18;17.92;;;8.98;;